Time;durP1;ratioP1;P1;durP2;ratioP2;P2;SDS_P1;SDS_P2;PMS_P1;PMS_P2;Temp;Humidity;BMP_temperature;BMP_pressure;BME280_temperature;BME280_humidity;BME280_pressure;Samples;Min_cycle;Max_cycle;Signal;HPM_P1;HPM_P2
2023/05/11 00:00:00;;;;;;;11.15;2.85;;;15.90;99.90;;;;;;5031297;28;20014;-74
2023/05/11 00:02:26;;;;;;;10.97;2.33;;;15.90;99.90;;;;;;5031533;28;20496;-76
2023/05/11 00:04:54;;;;;;;7.85;2.58;;;15.90;99.90;;;;;;5029831;28;20033;-75
2023/05/11 00:07:20;;;;;;;9.25;2.10;;;15.90;99.90;;;;;;5031558;28;20454;-74
2023/05/11 00:09:46;;;;;;;13.20;2.95;;;16.00;99.90;;;;;;5031647;28;20052;-75
2023/05/11 00:12:13;;;;;;;9.80;2.90;;;16.00;99.90;;;;;;5031430;28;20076;-74
2023/05/11 00:14:39;;;;;;;6.47;2.53;;;15.90;99.90;;;;;;5031044;28;20676;-75
2023/05/11 00:17:05;;;;;;;11.50;3.70;;;15.90;99.90;;;;;;5030998;28;20025;-75
2023/05/11 00:19:31;;;;;;;11.30;3.22;;;15.80;99.90;;;;;;5031113;28;20057;-74
2023/05/11 00:21:58;;;;;;;10.10;3.80;;;15.80;99.90;;;;;;5031108;28;20186;-74
2023/05/11 00:24:25;;;;;;;10.15;3.70;;;15.70;99.90;;;;;;5030997;28;20029;-74
2023/05/11 00:26:51;;;;;;;9.63;3.60;;;15.60;99.90;;;;;;5029501;28;20028;-74
2023/05/11 00:29:17;;;;;;;14.07;4.70;;;15.50;99.90;;;;;;5031369;28;20086;-75
2023/05/11 00:31:49;;;;;;;11.32;4.60;;;15.40;99.90;;;;;;5030796;28;20489;-75
2023/05/11 00:34:17;;;;;;;10.10;3.60;;;15.40;99.90;;;;;;5031220;28;20029;-74
2023/05/11 00:36:44;;;;;;;10.95;3.80;;;15.40;99.90;;;;;;5031190;28;20021;-75
2023/05/11 00:39:11;;;;;;;10.38;3.47;;;15.40;99.90;;;;;;5030848;28;20083;-75
2023/05/11 00:41:38;;;;;;;11.38;3.47;;;15.50;99.90;;;;;;5030895;28;20111;-74
2023/05/11 00:44:04;;;;;;;8.77;4.13;;;15.40;99.90;;;;;;5030578;28;20029;-74
2023/05/11 00:46:30;;;;;;;11.27;3.38;;;15.40;99.90;;;;;;5031242;28;20033;-75
2023/05/11 00:48:57;;;;;;;10.80;3.60;;;15.40;99.90;;;;;;5030683;28;20057;-75
2023/05/11 00:51:23;;;;;;;10.40;3.65;;;15.50;99.90;;;;;;5029061;28;20033;-75
2023/05/11 00:53:50;;;;;;;12.90;3.50;;;15.40;99.90;;;;;;5030601;28;20029;-75
2023/05/11 00:56:16;;;;;;;12.40;3.35;;;15.40;99.90;;;;;;5030563;28;20385;-74
2023/05/11 00:58:42;;;;;;;12.95;3.90;;;15.40;99.90;;;;;;5030523;28;20049;-74
2023/05/11 01:01:09;;;;;;;13.32;3.83;;;15.40;99.90;;;;;;5030650;28;20071;-74
2023/05/11 01:03:35;;;;;;;11.38;3.05;;;15.40;99.90;;;;;;5030144;28;20092;-74
2023/05/11 01:06:10;;;;;;;16.98;3.72;;;15.40;99.90;;;;;;5028924;28;20035;-75
2023/05/11 01:08:40;;;;;;;12.82;3.20;;;15.40;99.90;;;;;;5030628;28;20127;-75
2023/05/11 01:11:37;;;;;;;13.48;3.38;;;15.40;99.90;;;;;;5030320;28;20355;-73
2023/05/11 01:14:26;;;;;;;11.60;2.83;;;15.40;99.90;;;;;;5030447;28;20035;-74
2023/05/11 01:17:02;;;;;;;17.17;3.17;;;15.40;99.90;;;;;;5030335;28;20531;-74
2023/05/11 01:19:40;;;;;;;16.95;3.55;;;15.30;99.90;;;;;;5030295;28;20052;-75
2023/05/11 01:22:38;;;;;;;24.02;4.28;;;15.30;99.90;;;;;;5030865;28;20089;-75
2023/05/11 01:25:30;;;;;;;18.58;3.80;;;15.40;99.90;;;;;;5030336;28;20116;-75
2023/05/11 01:28:09;;;;;;;19.90;4.30;;;15.30;99.90;;;;;;5030599;28;20017;-74
2023/05/11 01:30:56;;;;;;;24.17;4.18;;;15.30;99.90;;;;;;5030444;28;20071;-75
2023/05/11 01:33:32;;;;;;;21.23;4.05;;;15.20;99.90;;;;;;5030204;28;20488;-74
2023/05/11 01:36:06;;;;;;;21.52;3.80;;;15.30;99.90;;;;;;5028587;28;20045;-74
2023/05/11 01:38:35;;;;;;;23.08;4.10;;;15.20;99.90;;;;;;5030266;28;20025;-74
2023/05/11 01:41:11;;;;;;;19.38;3.83;;;15.20;99.90;;;;;;5030822;28;20041;-75
2023/05/11 01:43:39;;;;;;;25.33;4.32;;;15.20;99.90;;;;;;5030466;28;20190;-75
2023/05/11 01:46:09;;;;;;;21.33;4.00;;;15.30;99.90;;;;;;5030199;28;20116;-75
2023/05/11 01:48:39;;;;;;;26.10;4.22;;;15.30;99.90;;;;;;5029886;28;20097;-74
2023/05/11 01:51:08;;;;;;;21.08;4.18;;;15.40;99.90;;;;;;5030066;28;20049;-76
2023/05/11 01:53:37;;;;;;;28.10;4.25;;;15.40;99.90;;;;;;5029951;28;20044;-74
2023/05/11 01:56:04;;;;;;;32.28;4.75;;;15.40;99.90;;;;;;5030297;28;20109;-75
2023/05/11 01:58:32;;;;;;;24.42;4.30;;;15.50;99.90;;;;;;5034143;28;20029;-74
2023/05/11 02:01:01;;;;;;;28.15;4.47;;;15.40;99.90;;;;;;5033752;28;20083;-74
2023/05/11 02:03:30;;;;;;;30.23;5.10;;;15.40;99.90;;;;;;5032054;28;20386;-75
2023/05/11 02:05:58;;;;;;;24.98;4.60;;;15.30;99.90;;;;;;5033706;28;20026;-75
2023/05/11 02:08:25;;;;;;;33.70;4.82;;;15.30;99.90;;;;;;5032062;28;20021;-75
2023/05/11 02:10:52;;;;;;;;;;;15.30;99.90;;;;;;5034154;28;20061;-75
2023/05/11 02:13:19;;;;;;;28.33;4.68;;;15.20;99.90;;;;;;5033504;28;19912;-74
2023/05/11 02:15:45;;;;;;;;;;;15.20;99.90;;;;;;5033815;28;20029;-75
2023/05/11 02:18:14;;;;;;;26.42;4.88;;;15.10;99.90;;;;;;5033368;28;20023;-75
2023/05/11 02:20:46;;;;;;;25.98;4.22;;;15.20;99.90;;;;;;5032993;28;20386;-75
2023/05/11 02:23:13;;;;;;;26.00;4.57;;;15.20;99.90;;;;;;5033386;28;20407;-72
2023/05/11 02:25:41;;;;;;;26.58;4.55;;;15.20;99.90;;;;;;5033286;28;20037;-76
2023/05/11 02:28:07;;;;;;;37.13;5.13;;;15.20;99.90;;;;;;5033570;28;20128;-75
2023/05/11 02:30:43;;;;;;;25.88;4.93;;;15.20;99.90;;;;;;5033333;28;20488;-75
2023/05/11 02:33:11;;;;;;;26.17;4.60;;;15.20;99.90;;;;;;5031460;28;20025;-74
2023/05/11 02:35:41;;;;;;;25.88;4.85;;;15.20;99.90;;;;;;5032647;28;20434;-73
2023/05/11 02:38:09;;;;;;;23.65;5.07;;;15.20;99.90;;;;;;5032553;28;20472;-74
2023/05/11 02:40:41;;;;;;;30.17;4.97;;;15.20;99.90;;;;;;5033145;28;20473;-75
2023/05/11 02:43:19;;;;;;;29.75;4.25;;;15.20;99.90;;;;;;5033220;28;20192;-74
2023/05/11 02:45:47;;;;;;;27.08;4.57;;;15.20;99.90;;;;;;5032716;28;20113;-75
2023/05/11 02:48:25;;;;;;;29.42;4.57;;;15.10;99.90;;;;;;5032677;28;20044;-75
2023/05/11 02:50:55;;;;;;;23.63;4.25;;;15.10;99.90;;;;;;5032364;28;20113;-74
2023/05/11 02:53:26;;;;;;;31.52;4.30;;;15.10;99.90;;;;;;5031288;28;20665;-72
2023/05/11 02:55:54;;;;;;;35.63;4.65;;;15.10;99.90;;;;;;5027894;28;20100;-72
2023/05/11 02:58:21;;;;;;;29.33;4.63;;;15.10;99.90;;;;;;5023666;28;20018;-73
2023/05/11 03:00:47;;;;;;;24.38;3.53;;;15.10;99.90;;;;;;5027992;28;20087;-75
2023/05/11 03:03:13;;;;;;;30.92;4.22;;;15.00;99.90;;;;;;5030133;28;20022;-75
2023/05/11 03:05:40;;;;;;;25.38;3.95;;;15.10;99.90;;;;;;5030836;28;20045;-72
2023/05/11 03:08:07;;;;;;;29.35;4.47;;;15.10;99.90;;;;;;5031748;28;20128;-75
2023/05/11 03:10:33;;;;;;;23.60;3.88;;;15.10;99.90;;;;;;5027146;28;20038;-76
2023/05/11 03:13:00;;;;;;;33.17;4.70;;;15.10;99.90;;;;;;5032845;28;20030;-74
2023/05/11 03:15:27;;;;;;;32.88;4.57;;;15.00;99.90;;;;;;5033339;28;20100;-75
2023/05/11 03:17:55;;;;;;;26.83;4.78;;;15.00;99.90;;;;;;5033358;28;20507;-75
2023/05/11 03:20:22;;;;;;;25.05;3.88;;;15.00;99.90;;;;;;5033081;28;20048;-75
2023/05/11 03:22:50;;;;;;;32.63;5.13;;;15.00;99.90;;;;;;5033240;28;20029;-75
2023/05/11 03:25:17;;;;;;;29.13;4.63;;;15.00;99.90;;;;;;5033390;28;20063;-74
2023/05/11 03:27:45;;;;;;;28.92;4.30;;;15.00;99.90;;;;;;5033540;28;20030;-74
2023/05/11 03:30:13;;;;;;;31.95;5.20;;;15.00;99.90;;;;;;5033525;28;20072;-73
2023/05/11 03:32:39;;;;;;;31.48;4.90;;;15.00;99.90;;;;;;5033310;28;20025;-75
2023/05/11 03:35:06;;;;;;;32.60;3.90;;;15.00;99.90;;;;;;5033817;28;20092;-74
2023/05/11 03:37:32;;;;;;;;;;;15.00;99.90;;;;;;5032288;28;20544;-75
2023/05/11 03:40:00;;;;;;;31.02;4.47;;;15.00;99.90;;;;;;5033365;28;19905;-74
2023/05/11 03:42:28;;;;;;;32.75;4.20;;;15.00;99.90;;;;;;5033109;28;20389;-74
2023/05/11 03:44:58;;;;;;;26.10;3.90;;;15.00;99.90;;;;;;5031040;28;20049;-75
2023/05/11 03:47:27;;;;;;;30.10;3.85;;;15.00;99.90;;;;;;5033003;28;20053;-72
2023/05/11 03:49:55;;;;;;;24.05;3.83;;;15.00;99.90;;;;;;5032945;28;20033;-75
2023/05/11 03:52:22;;;;;;;31.40;4.10;;;15.00;99.90;;;;;;5033021;28;20021;-73
2023/05/11 03:54:48;;;;;;;25.60;4.10;;;15.00;99.90;;;;;;5033255;28;20083;-74
2023/05/11 03:57:15;;;;;;;27.55;3.90;;;15.00;99.90;;;;;;5031492;28;20036;-75
2023/05/11 03:59:41;;;;;;;29.48;5.20;;;14.90;99.90;;;;;;5033095;28;20049;-75
2023/05/11 04:02:07;;;;;;;29.15;4.28;;;15.00;99.90;;;;;;5033138;28;20026;-75
2023/05/11 04:04:34;;;;;;;25.10;3.75;;;15.00;99.90;;;;;;5033148;28;20058;-74
2023/05/11 04:07:00;;;;;;;29.83;4.25;;;15.00;99.90;;;;;;5032691;28;20123;-75
2023/05/11 04:09:26;;;;;;;32.90;5.18;;;15.00;99.90;;;;;;5032612;28;20401;-74
2023/05/11 04:11:52;;;;;;;24.50;4.50;;;15.00;99.90;;;;;;5032674;28;20030;-75
2023/05/11 04:14:19;;;;;;;31.05;4.55;;;15.00;99.90;;;;;;5032796;28;20043;-73
2023/05/11 04:16:45;;;;;;;28.08;3.83;;;15.00;99.90;;;;;;5033142;28;20029;-74
2023/05/11 04:19:13;;;;;;;35.70;5.67;;;15.00;99.90;;;;;;5031835;28;20109;-73
2023/05/11 04:21:48;;;;;;;33.50;5.05;;;15.00;99.90;;;;;;5031687;28;20689;-73
2023/05/11 04:24:14;;;;;;;20.92;3.72;;;15.00;99.90;;;;;;5029208;28;20497;-72
2023/05/11 04:26:41;;;;;;;29.88;4.25;;;15.10;99.90;;;;;;5031989;28;20371;-71
2023/05/11 04:29:07;;;;;;;24.85;4.10;;;15.10;99.90;;;;;;5033224;28;20465;-73
2023/05/11 04:31:33;;;;;;;28.35;4.18;;;15.20;99.90;;;;;;5031080;28;20025;-76
2023/05/11 04:34:00;;;;;;;25.98;4.03;;;15.20;99.90;;;;;;5026297;28;20053;-73
2023/05/11 04:36:27;;;;;;;30.17;4.22;;;15.20;99.90;;;;;;5020712;28;20022;-71
2023/05/11 04:38:53;;;;;;;28.25;4.93;;;15.30;99.90;;;;;;5026299;28;20021;-73
2023/05/11 04:41:21;;;;;;;23.98;4.05;;;15.30;99.90;;;;;;5029817;28;20033;-74
2023/05/11 04:43:47;;;;;;;29.90;4.65;;;15.40;99.90;;;;;;5030940;28;20063;-73
2023/05/11 04:46:13;;;;;;;28.17;4.37;;;15.60;99.90;;;;;;5029168;28;20045;-74
2023/05/11 04:48:39;;;;;;;30.57;4.50;;;15.70;99.90;;;;;;5033228;28;20315;-75
2023/05/11 04:51:06;;;;;;;28.77;4.83;;;15.80;99.90;;;;;;5032555;28;20030;-74
2023/05/11 04:53:32;;;;;;;;;;;16.00;99.90;;;;;;5033344;28;20335;-76
2023/05/11 04:55:58;;;;;;;23.30;3.95;;;16.10;99.90;;;;;;5031319;28;19944;-79
2023/05/11 04:58:24;;;;;;;24.40;4.23;;;16.20;99.90;;;;;;5033087;28;20032;-80
2023/05/11 05:00:50;;;;;;;27.65;4.60;;;16.40;99.90;;;;;;5031166;28;20280;-79
2023/05/11 05:03:16;;;;;;;16.75;3.72;;;16.40;99.90;;;;;;5030873;28;20029;-79
2023/05/11 05:05:42;;;;;;;30.52;4.05;;;16.50;99.90;;;;;;5032364;28;20071;-79
2023/05/11 05:08:08;;;;;;;21.70;3.67;;;16.70;99.90;;;;;;5032089;28;20018;-79
2023/05/11 05:10:34;;;;;;;30.85;5.00;;;16.90;99.90;;;;;;5031700;28;20178;-79
2023/05/11 05:13:00;;;;;;;33.33;4.10;;;17.30;99.90;;;;;;5031674;28;20037;-80
2023/05/11 05:15:26;;;;;;;27.98;4.22;;;17.50;99.90;;;;;;5031671;28;20050;-79
2023/05/11 05:17:53;;;;;;;28.50;4.35;;;18.00;99.90;;;;;;5031809;28;20489;-79
2023/05/11 05:20:19;;;;;;;23.88;4.18;;;19.70;99.90;;;;;;5031697;28;20116;-77
2023/05/11 05:22:45;;;;;;;22.10;4.13;;;21.40;99.90;;;;;;5031890;28;20470;-79
2023/05/11 05:25:11;;;;;;;23.45;4.72;;;22.20;99.90;;;;;;5031608;28;20543;-77
2023/05/11 05:27:38;;;;;;;20.88;5.03;;;23.20;99.90;;;;;;5033185;28;20085;-80
2023/05/11 05:30:05;;;;;;;20.88;4.20;;;24.90;99.90;;;;;;5032777;28;20100;-80
2023/05/11 05:32:31;;;;;;;16.08;3.78;;;25.70;99.90;;;;;;5034368;28;20033;-80
2023/05/11 05:34:58;;;;;;;20.45;4.45;;;26.30;99.90;;;;;;5035838;28;20030;-81
2023/05/11 05:37:24;;;;;;;;;;;27.20;99.90;;;;;;5036133;28;20021;-81
2023/05/11 05:39:50;;;;;;;17.38;3.65;;;28.20;99.90;;;;;;5035954;28;19912;-81
2023/05/11 05:42:16;;;;;;;25.45;4.32;;;28.50;99.90;;;;;;5034368;28;20029;-81
2023/05/11 05:44:42;;;;;;;;;;;28.00;99.90;;;;;;5034750;28;20173;-80
2023/05/11 05:47:08;;;;;;;19.67;3.75;;;29.30;99.90;;;;;;5051302;28;19905;-79
2023/05/11 05:49:35;;;;;;;24.58;4.38;;;30.10;99.90;;;;;;5035500;28;20032;-80
2023/05/11 05:52:01;;;;;;;24.48;4.03;;;29.70;99.90;;;;;;5035941;28;20024;-80
2023/05/11 05:54:27;;;;;;;;;;;30.00;99.90;;;;;;5036596;28;20021;-81
2023/05/11 05:56:54;;;;;;;17.67;3.70;;;30.60;99.90;;;;;;5050994;28;19963;-79
2023/05/11 05:59:22;;;;;;;17.80;3.80;;;30.50;99.90;;;;;;5035189;28;20105;-81
2023/05/11 06:01:57;;;;;;;19.98;4.18;;;30.70;99.90;;;;;;5035024;28;20032;-80
2023/05/11 06:04:23;;;;;;;28.97;4.43;;;30.60;99.90;;;;;;5034880;28;20109;-79
2023/05/11 06:06:49;;;;;;;22.25;4.35;;;31.00;99.90;;;;;;5036814;28;20119;-81
2023/05/11 06:09:15;;;;;;;;;;;30.40;99.90;;;;;;5037160;28;20033;-81
2023/05/11 06:11:42;;;;;;;19.40;4.07;;;31.50;99.90;;;;;;5037978;28;19905;-82
2023/05/11 06:14:09;;;;;;;19.52;4.18;;;32.00;99.90;;;;;;5037223;28;20036;-80
2023/05/11 06:16:35;;;;;;;24.05;3.95;;;31.10;99.90;;;;;;5035291;28;20022;-81
2023/05/11 06:19:01;;;;;;;19.17;4.25;;;30.10;99.90;;;;;;5036767;28;20045;-81
2023/05/11 06:21:27;;;;;;;;;;;29.10;99.90;;;;;;5034784;28;20513;-82
2023/05/11 06:23:56;;;;;;;22.48;4.00;;;27.90;99.90;;;;;;5052424;28;19913;-82
2023/05/11 06:26:23;;;;;;;18.33;4.20;;;28.30;99.90;;;;;;5041101;28;20079;-81
2023/05/11 06:28:51;;;;;;;32.60;5.38;;;29.90;99.90;;;;;;5039166;28;20064;-85
2023/05/11 12:19:11;;;;;;;12.90;2.30;;;23.20;99.90;;;;;;5101008;27;20354;-74
2023/05/11 12:21:37;;;;;;;17.45;2.70;;;23.20;99.90;;;;;;5097412;28;20127;-74
2023/05/11 12:24:04;;;;;;;13.85;2.40;;;23.40;99.90;;;;;;5089851;28;20073;-75
2023/05/11 12:26:32;;;;;;;18.38;2.33;;;23.40;99.90;;;;;;5089636;28;20092;-73
2023/05/11 12:29:09;;;;;;;16.58;2.28;;;23.30;99.90;;;;;;5090098;28;20032;-73
2023/05/11 12:31:38;;;;;;;19.70;2.80;;;22.80;99.90;;;;;;5122223;28;20154;-75
2023/05/11 12:34:04;;;;;;;16.63;3.05;;;22.50;99.90;;;;;;5089712;28;20050;-76
2023/05/11 12:36:32;;;;;;;9.10;2.17;;;23.00;99.90;;;;;;5122396;28;20032;-73
2023/05/11 12:38:58;;;;;;;15.07;2.17;;;22.80;99.90;;;;;;5089501;28;20032;-74
2023/05/11 12:41:24;;;;;;;;;;;22.70;99.90;;;;;;5090094;28;20021;-75
2023/05/11 12:43:52;;;;;;;16.92;2.28;;;22.80;99.90;;;;;;5089821;28;19916;-76
2023/05/11 12:46:20;;;;;;;16.60;2.47;;;22.90;99.90;;;;;;5089372;28;20028;-75
2023/05/11 12:48:47;;;;;;;19.13;3.08;;;23.10;99.90;;;;;;5089418;28;20400;-77
2023/05/11 12:51:51;;;;;;;22.45;3.53;;;23.40;99.90;;;;;;5089433;28;20017;-75
2023/05/11 12:54:50;;;;;;;21.00;2.40;;;23.20;99.90;;;;;;5088585;28;20122;-76
2023/05/11 12:57:24;;;;;;;17.45;2.75;;;22.90;99.90;;;;;;5088409;28;20048;-76
2023/05/11 13:00:09;;;;;;;21.13;2.95;;;23.10;99.90;;;;;;5089259;28;20020;-76
2023/05/11 13:02:52;;;;;;;14.97;2.27;;;23.10;99.90;;;;;;5089307;28;20108;-75
2023/05/11 13:05:26;;;;;;;18.80;2.85;;;23.20;99.90;;;;;;5088763;28;20267;-76
2023/05/11 13:08:03;;;;;;;15.30;2.80;;;23.40;99.90;;;;;;5088846;28;20028;-75
2023/05/11 13:10:30;;;;;;;12.80;2.20;;;23.30;99.90;;;;;;5088443;28;20028;-76
2023/05/11 13:12:56;;;;;;;;;;;22.70;99.90;;;;;;5089097;28;20021;-75
2023/05/11 13:15:24;;;;;;;11.32;2.13;;;22.90;99.90;;;;;;5088400;28;19960;-74
2023/05/11 13:17:58;;;;;;;17.33;2.65;;;22.80;99.90;;;;;;5088395;28;20040;-75
2023/05/11 13:20:30;;;;;;;18.83;2.83;;;23.00;99.90;;;;;;5088806;28;20026;-76
2023/05/11 13:23:10;;;;;;;18.30;2.55;;;23.30;99.90;;;;;;5088713;28;20025;-74
2023/05/11 13:25:48;;;;;;;17.15;3.03;;;23.00;99.90;;;;;;5088527;28;20118;-76
2023/05/11 13:28:15;;;;;;;13.07;2.53;;;23.00;99.90;;;;;;5088280;28;20028;-77
2023/05/11 13:30:42;;;;;;;16.50;2.30;;;23.10;99.90;;;;;;5074898;28;20465;-76
2023/05/11 13:33:08;;;;;;;16.92;2.78;;;23.00;99.90;;;;;;5074781;28;20024;-76
2023/05/11 13:35:52;;;;;;;12.52;2.40;;;22.70;99.90;;;;;;5074983;28;20025;-75
2023/05/11 13:38:18;;;;;;;15.80;2.05;;;22.80;99.90;;;;;;5075413;28;20036;-76
2023/05/11 13:40:44;;;;;;;15.30;2.30;;;22.70;99.90;;;;;;5075235;28;20376;-75
2023/05/11 13:43:10;;;;;;;13.43;2.38;;;22.80;99.90;;;;;;5074744;28;20033;-75
2023/05/11 13:45:38;;;;;;;19.55;3.58;;;22.60;99.90;;;;;;5074910;28;20025;-76
2023/05/11 13:48:05;;;;;;;21.90;5.05;;;22.80;99.90;;;;;;5074513;28;20036;-74
2023/05/11 13:50:34;;;;;;;17.30;2.85;;;23.00;99.90;;;;;;5075001;28;20134;-75
2023/05/11 13:53:00;;;;;;;12.10;2.60;;;23.10;99.90;;;;;;5074371;28;20033;-74
2023/05/11 13:55:28;;;;;;;19.65;2.55;;;23.00;99.90;;;;;;5074295;28;20032;-75
2023/05/11 13:57:55;;;;;;;21.88;3.30;;;22.90;99.90;;;;;;5073623;28;20033;-77
2023/05/11 14:00:21;;;;;;;16.02;2.97;;;22.90;99.90;;;;;;5074028;28;20484;-75
2023/05/11 14:02:49;;;;;;;14.55;2.58;;;22.90;99.90;;;;;;5073717;28;20053;-76
2023/05/11 14:05:16;;;;;;;14.45;2.28;;;22.80;99.90;;;;;;5073678;28;20029;-74
2023/05/11 14:07:42;;;;;;;16.73;2.30;;;22.70;99.90;;;;;;5073923;28;20028;-75
2023/05/11 14:10:09;;;;;;;16.15;2.83;;;22.80;99.90;;;;;;5073759;28;20040;-76
2023/05/11 14:12:35;;;;;;;23.92;3.53;;;23.20;99.90;;;;;;5073876;28;20103;-76
2023/05/11 14:15:02;;;;;;;17.73;3.20;;;23.20;99.90;;;;;;5073794;28;20043;-76
2023/05/11 14:17:28;;;;;;;17.45;3.13;;;23.10;99.90;;;;;;5073121;28;20131;-75
2023/05/11 14:19:54;;;;;;;11.32;2.63;;;23.10;99.90;;;;;;5073393;28;20037;-76
2023/05/11 14:22:20;;;;;;;19.70;2.80;;;23.20;99.90;;;;;;5073637;28;20024;-75
2023/05/11 14:24:46;;;;;;;21.35;2.70;;;22.90;99.90;;;;;;5073528;28;20033;-75
2023/05/11 14:27:12;;;;;;;20.95;3.40;;;22.60;99.90;;;;;;5073729;28;20051;-75
2023/05/11 14:29:41;;;;;;;12.77;2.83;;;22.80;99.90;;;;;;5073321;28;20020;-76
2023/05/11 14:32:07;;;;;;;13.80;2.90;;;22.60;99.90;;;;;;5073824;28;20051;-74
2023/05/11 14:34:33;;;;;;;17.20;3.30;;;22.70;99.90;;;;;;5073052;28;20036;-75
2023/05/11 14:37:00;;;;;;;14.90;3.35;;;22.60;99.90;;;;;;5073381;28;20020;-75
2023/05/11 14:39:26;;;;;;;20.48;3.65;;;22.70;99.90;;;;;;5073409;28;20499;-75
2023/05/11 14:41:52;;;;;;;19.80;3.20;;;22.40;99.90;;;;;;5072363;28;20058;-75
2023/05/11 14:44:18;;;;;;;21.13;3.65;;;22.10;99.90;;;;;;5073543;28;20024;-75
2023/05/11 14:46:45;;;;;;;14.63;3.00;;;22.00;99.90;;;;;;5072807;28;20100;-74
2023/05/11 14:49:11;;;;;;;16.45;3.50;;;21.90;99.90;;;;;;5072338;28;20036;-75
2023/05/11 14:51:37;;;;;;;15.60;3.45;;;22.00;99.90;;;;;;5104842;28;20036;-74
2023/05/11 14:54:10;;;;;;;19.08;3.85;;;21.90;99.90;;;;;;5070622;28;20077;-74
2023/05/11 14:56:36;;;;;;;12.13;2.63;;;22.10;99.90;;;;;;5072144;28;20025;-74
2023/05/11 14:59:02;;;;;;;19.50;4.70;;;21.90;99.90;;;;;;5070572;28;20499;-74
2023/05/11 15:01:29;;;;;;;20.70;4.68;;;21.90;99.90;;;;;;5071654;28;20029;-75
2023/05/11 15:03:55;;;;;;;15.50;3.42;;;22.00;99.90;;;;;;5071435;28;20032;-72
2023/05/11 15:06:22;;;;;;;15.98;3.38;;;22.00;99.90;;;;;;5071954;28;20388;-74
2023/05/11 15:08:49;;;;;;;17.17;3.05;;;21.90;99.90;;;;;;5071737;28;20028;-71
2023/05/11 15:11:16;;;;;;;10.85;2.75;;;22.00;99.90;;;;;;5071777;28;20056;-74
2023/05/11 15:13:42;;;;;;;20.10;3.25;;;22.00;99.90;;;;;;5071829;28;20020;-75
2023/05/11 15:16:09;;;;;;;22.63;3.17;;;21.80;99.90;;;;;;5071505;28;20032;-75
2023/05/11 15:18:35;;;;;;;19.13;2.85;;;21.80;99.90;;;;;;5070097;28;20048;-73
2023/05/11 15:21:03;;;;;;;17.08;3.20;;;21.90;99.90;;;;;;5072423;28;20107;-73
2023/05/11 15:23:32;;;;;;;18.85;3.30;;;21.90;99.90;;;;;;5072039;28;20538;-75
2023/05/11 15:25:58;;;;;;;18.13;2.65;;;21.90;99.90;;;;;;5071710;28;20029;-75
2023/05/11 15:28:24;;;;;;;14.07;2.53;;;22.00;99.90;;;;;;5070728;28;20021;-74
2023/05/11 15:30:50;;;;;;;17.98;2.92;;;22.00;99.90;;;;;;5072050;28;20087;-75
2023/05/11 15:33:17;;;;;;;13.60;3.38;;;21.80;99.90;;;;;;5071610;28;20485;-75
2023/05/11 15:35:43;;;;;;;25.30;3.00;;;21.80;99.90;;;;;;5071808;28;20111;-75
2023/05/11 15:38:09;;;;;;;14.18;2.72;;;21.80;99.90;;;;;;5071979;28;20040;-75
2023/05/11 15:40:35;;;;;;;18.20;3.92;;;21.80;99.90;;;;;;5071891;28;20079;-74
2023/05/11 15:43:01;;;;;;;15.57;2.92;;;21.70;99.90;;;;;;5072178;28;20115;-74
2023/05/11 15:45:29;;;;;;;12.30;2.75;;;21.60;99.90;;;;;;5072302;28;20135;-75
2023/05/11 15:47:55;;;;;;;14.63;2.67;;;21.70;99.90;;;;;;5071807;28;20060;-75
2023/05/11 15:50:21;;;;;;;20.00;2.97;;;21.60;99.90;;;;;;5071421;28;20051;-74
2023/05/11 15:52:47;;;;;;;18.10;2.55;;;21.50;99.90;;;;;;5071355;28;20034;-75
2023/05/11 15:55:13;;;;;;;21.80;2.90;;;21.30;99.90;;;;;;5071325;28;20169;-75
2023/05/11 15:57:39;;;;;;;22.10;3.83;;;21.10;99.90;;;;;;5061292;28;20032;-73
2023/05/11 16:00:08;;;;;;;19.40;2.83;;;21.10;99.90;;;;;;5058591;28;20108;-75
2023/05/11 16:02:35;;;;;;;15.73;2.67;;;21.00;99.90;;;;;;5058298;28;20012;-77
2023/05/11 16:05:01;;;;;;;16.75;2.88;;;20.80;99.90;;;;;;5060853;28;20064;-75
2023/05/11 16:07:27;;;;;;;25.77;3.45;;;21.00;99.90;;;;;;5060734;28;20020;-75
2023/05/11 16:09:53;;;;;;;16.23;2.75;;;21.10;99.90;;;;;;5059528;28;20035;-75
2023/05/11 16:12:19;;;;;;;20.20;3.38;;;20.90;99.90;;;;;;5059773;28;20025;-73
2023/05/11 16:14:45;;;;;;;17.15;3.53;;;20.90;99.90;;;;;;5070869;28;20032;-75
2023/05/11 16:17:11;;;;;;;21.95;3.30;;;20.90;99.90;;;;;;5071305;28;20041;-72
2023/05/11 16:19:37;;;;;;;17.75;2.92;;;20.80;99.90;;;;;;5070847;28;20036;-72
2023/05/11 16:22:03;;;;;;;21.40;3.08;;;20.80;99.90;;;;;;5066696;28;20032;-72
2023/05/11 16:24:32;;;;;;;15.20;2.63;;;20.80;99.90;;;;;;5059375;28;20025;-75
2023/05/11 16:26:58;;;;;;;22.00;3.33;;;20.80;99.90;;;;;;5051856;28;20029;-74
2023/05/11 16:29:25;;;;;;;16.30;3.05;;;20.80;99.90;;;;;;5052525;28;20025;-75
2023/05/11 16:31:51;;;;;;;14.88;2.65;;;20.80;99.90;;;;;;5050672;28;20091;-75
2023/05/11 16:34:18;;;;;;;;;;;20.80;99.90;;;;;;5052109;28;20516;-76
2023/05/11 16:36:44;;;;;;;18.88;2.90;;;20.90;99.90;;;;;;5051872;28;19927;-75
2023/05/11 16:39:11;;;;;;;22.55;2.80;;;20.90;99.90;;;;;;5052210;28;20043;-76
2023/05/11 16:41:37;;;;;;;19.88;3.17;;;20.80;99.90;;;;;;5055271;28;20028;-75
2023/05/11 16:44:04;;;;;;;18.00;2.70;;;20.90;99.90;;;;;;5060239;28;20687;-76
2023/05/11 16:46:30;;;;;;;21.10;3.08;;;20.70;99.90;;;;;;5058000;28;20025;-75
2023/05/11 16:48:56;;;;;;;23.13;2.88;;;20.70;99.90;;;;;;5061670;28;20013;-75
2023/05/11 16:51:22;;;;;;;15.95;2.58;;;20.70;99.90;;;;;;5060778;28;20021;-75
2023/05/11 16:53:50;;;;;;;19.88;3.65;;;20.30;99.90;;;;;;5058533;28;20022;-72
2023/05/11 16:56:16;;;;;;;15.82;2.75;;;20.20;99.90;;;;;;5051721;28;20056;-74
2023/05/11 16:58:43;;;;;;;16.48;2.83;;;20.10;99.90;;;;;;5051896;28;20362;-73
2023/05/11 17:01:10;;;;;;;17.48;3.17;;;20.20;99.90;;;;;;5050421;28;20032;-74
2023/05/11 17:03:36;;;;;;;14.85;2.53;;;20.10;99.90;;;;;;5049919;28;20021;-74
2023/05/11 17:06:02;;;;;;;17.63;2.40;;;20.10;99.90;;;;;;5053875;28;20178;-73
2023/05/11 17:08:28;;;;;;;17.02;3.13;;;19.80;99.90;;;;;;5055314;28;20035;-74
2023/05/11 17:10:55;;;;;;;16.95;3.03;;;19.70;99.90;;;;;;5055639;28;20083;-73
2023/05/11 17:13:22;;;;;;;18.33;3.25;;;19.60;99.90;;;;;;5054710;28;20044;-74
2023/05/11 17:15:50;;;;;;;19.85;3.72;;;19.60;99.90;;;;;;5055526;28;20346;-75
2023/05/11 17:18:16;;;;;;;23.05;3.40;;;19.80;99.90;;;;;;5058019;28;20051;-73
2023/05/11 17:20:42;;;;;;;;;;;19.70;99.90;;;;;;5075141;28;20469;-75
2023/05/11 17:23:08;;;;;;;21.27;3.22;;;19.70;99.90;;;;;;5075506;28;19918;-75
2023/05/11 17:25:34;;;;;;;13.82;2.22;;;19.70;99.90;;;;;;5073564;28;20432;-74
2023/05/11 17:28:00;;;;;;;13.77;2.83;;;19.70;99.90;;;;;;5073454;28;20391;-76
2023/05/11 17:30:27;;;;;;;17.63;2.97;;;19.80;99.90;;;;;;5074949;28;20016;-75
2023/05/11 17:32:53;;;;;;;20.17;3.53;;;19.80;99.90;;;;;;5074984;28;20094;-75
2023/05/11 17:35:19;;;;;;;18.23;2.88;;;19.70;99.90;;;;;;5074516;28;20108;-75
2023/05/11 17:37:45;;;;;;;20.63;2.97;;;19.50;99.90;;;;;;5074867;28;20077;-75
2023/05/11 17:40:11;;;;;;;;;;;19.40;99.90;;;;;;5073477;28;20084;-74
2023/05/11 17:42:37;;;;;;;19.15;2.90;;;19.50;99.90;;;;;;5073049;28;20278;-74
2023/05/11 17:45:04;;;;;;;22.75;3.25;;;19.50;99.90;;;;;;5074525;28;20050;-73
2023/05/11 17:47:31;;;;;;;18.80;3.13;;;19.50;99.90;;;;;;5074444;28;20031;-75
2023/05/11 17:49:57;;;;;;;21.33;3.40;;;19.30;99.90;;;;;;5073711;28;20450;-74
2023/05/11 17:52:24;;;;;;;20.27;3.50;;;19.20;99.90;;;;;;5073931;28;20059;-74
2023/05/11 17:54:51;;;;;;;23.17;2.95;;;19.10;99.90;;;;;;5073831;28;20021;-72
2023/05/11 17:57:17;;;;;;;19.27;2.58;;;19.00;99.90;;;;;;5074213;28;20104;-72
2023/05/11 17:59:44;;;;;;;27.55;3.90;;;18.80;99.90;;;;;;5074279;28;20381;-69
2023/05/11 18:02:10;;;;;;;18.70;2.70;;;18.60;99.90;;;;;;5074282;28;20321;-73
2023/05/11 18:04:36;;;;;;;24.20;3.10;;;18.40;99.90;;;;;;5072262;28;20028;-71
2023/05/11 18:07:03;;;;;;;14.90;3.20;;;18.20;99.90;;;;;;5072571;28;20482;-72
2023/05/11 18:09:29;;;;;;;21.55;2.92;;;18.00;99.90;;;;;;5074354;28;20392;-72
2023/05/11 18:11:55;;;;;;;27.63;3.70;;;17.80;99.90;;;;;;5074022;28;20530;-74
2023/05/11 18:14:21;;;;;;;23.85;3.42;;;17.80;99.90;;;;;;5073946;28;20362;-75
2023/05/11 18:16:48;;;;;;;23.93;3.37;;;17.80;99.90;;;;;;5074197;28;20043;-73
2023/05/11 18:19:14;;;;;;;23.17;3.42;;;17.80;99.90;;;;;;5073950;28;20287;-71
2023/05/11 18:21:40;;;;;;;21.85;2.83;;;17.80;99.90;;;;;;5074101;28;20067;-73
2023/05/11 18:24:08;;;;;;;24.85;3.65;;;17.80;99.90;;;;;;5073777;28;20434;-73
2023/05/11 18:26:34;;;;;;;18.38;3.03;;;17.60;99.90;;;;;;5073860;28;20012;-73
2023/05/11 18:29:00;;;;;;;21.73;3.83;;;17.60;99.90;;;;;;5074113;28;20032;-72
2023/05/11 18:31:28;;;;;;;29.83;4.05;;;17.70;99.90;;;;;;5072574;28;20099;-73